sensor_id;sensor_type;location;lat;lon;timestamp;temperature;humidity
11152;DHT22;5630;49.342;10.802;2023-02-28T00:00:48;-1.70;99.90
11152;DHT22;5630;49.342;10.802;2023-02-28T00:03:14;-1.60;99.90
11152;DHT22;5630;49.342;10.802;2023-02-28T00:05:39;-1.70;99.90
11152;DHT22;5630;49.342;10.802;2023-02-28T00:08:07;-1.70;99.90
11152;DHT22;5630;49.342;10.802;2023-02-28T00:10:32;-1.70;99.90
11152;DHT22;5630;49.342;10.802;2023-02-28T00:13:06;-1.70;99.90
11152;DHT22;5630;49.342;10.802;2023-02-28T00:15:32;-1.70;99.90
11152;DHT22;5630;49.342;10.802;2023-02-28T00:17:58;-1.70;99.90
11152;DHT22;5630;49.342;10.802;2023-02-28T00:20:24;-1.70;99.90
11152;DHT22;5630;49.342;10.802;2023-02-28T00:22:51;-1.70;99.90
11152;DHT22;5630;49.342;10.802;2023-02-28T00:25:20;-1.70;99.90
11152;DHT22;5630;49.342;10.802;2023-02-28T00:27:46;-1.70;99.90
11152;DHT22;5630;49.342;10.802;2023-02-28T00:30:14;-1.70;99.90
11152;DHT22;5630;49.342;10.802;2023-02-28T00:32:40;-1.80;99.90
11152;DHT22;5630;49.342;10.802;2023-02-28T00:35:07;-1.70;99.90
11152;DHT22;5630;49.342;10.802;2023-02-28T00:37:33;-1.80;99.90
11152;DHT22;5630;49.342;10.802;2023-02-28T00:39:58;-1.80;99.90
11152;DHT22;5630;49.342;10.802;2023-02-28T00:42:24;-1.80;99.90
11152;DHT22;5630;49.342;10.802;2023-02-28T00:44:50;-1.80;99.90
11152;DHT22;5630;49.342;10.802;2023-02-28T00:47:16;-1.80;99.90
11152;DHT22;5630;49.342;10.802;2023-02-28T00:49:41;-1.70;99.90
11152;DHT22;5630;49.342;10.802;2023-02-28T00:52:07;-1.80;99.90
11152;DHT22;5630;49.342;10.802;2023-02-28T00:54:33;-1.80;99.90
11152;DHT22;5630;49.342;10.802;2023-02-28T00:56:59;-1.80;99.90
11152;DHT22;5630;49.342;10.802;2023-02-28T00:59:24;-1.80;99.90
11152;DHT22;5630;49.342;10.802;2023-02-28T01:01:50;-1.80;99.90
11152;DHT22;5630;49.342;10.802;2023-02-28T01:04:15;-1.90;99.90
11152;DHT22;5630;49.342;10.802;2023-02-28T01:06:41;-1.90;99.90
11152;DHT22;5630;49.342;10.802;2023-02-28T01:09:07;-1.80;99.90
11152;DHT22;5630;49.342;10.802;2023-02-28T01:11:34;-1.90;99.90
11152;DHT22;5630;49.342;10.802;2023-02-28T01:14:00;-1.90;99.90
11152;DHT22;5630;49.342;10.802;2023-02-28T01:16:26;-1.90;99.90
11152;DHT22;5630;49.342;10.802;2023-02-28T01:18:52;-1.90;99.90
11152;DHT22;5630;49.342;10.802;2023-02-28T01:21:19;-1.90;99.90
11152;DHT22;5630;49.342;10.802;2023-02-28T01:23:45;-1.90;99.90
11152;DHT22;5630;49.342;10.802;2023-02-28T01:28:41;-1.90;99.90
11152;DHT22;5630;49.342;10.802;2023-02-28T01:31:08;-1.90;99.90
11152;DHT22;5630;49.342;10.802;2023-02-28T01:33:35;-1.90;99.90
11152;DHT22;5630;49.342;10.802;2023-02-28T01:36:02;-1.90;99.90
11152;DHT22;5630;49.342;10.802;2023-02-28T01:38:28;-1.80;99.90
11152;DHT22;5630;49.342;10.802;2023-02-28T01:40:54;-1.90;99.90
11152;DHT22;5630;49.342;10.802;2023-02-28T01:45:54;-1.90;99.90
11152;DHT22;5630;49.342;10.802;2023-02-28T01:48:28;-2.00;99.90
11152;DHT22;5630;49.342;10.802;2023-02-28T01:50:59;-1.90;99.90
11152;DHT22;5630;49.342;10.802;2023-02-28T01:53:33;-1.90;99.90
11152;DHT22;5630;49.342;10.802;2023-02-28T01:56:00;-1.90;99.90
11152;DHT22;5630;49.342;10.802;2023-02-28T01:58:29;-1.90;99.90
11152;DHT22;5630;49.342;10.802;2023-02-28T02:00:54;-1.90;99.90
11152;DHT22;5630;49.342;10.802;2023-02-28T02:03:20;-1.90;99.90
11152;DHT22;5630;49.342;10.802;2023-02-28T02:05:46;-1.90;99.90
11152;DHT22;5630;49.342;10.802;2023-02-28T02:08:25;-2.00;99.90
11152;DHT22;5630;49.342;10.802;2023-02-28T02:13:37;-1.90;99.90
11152;DHT22;5630;49.342;10.802;2023-02-28T02:16:48;-1.90;99.90
11152;DHT22;5630;49.342;10.802;2023-02-28T02:30:40;-2.00;99.90
11152;DHT22;5630;49.342;10.802;2023-02-28T02:33:27;-2.00;99.90
11152;DHT22;5630;49.342;10.802;2023-02-28T02:36:04;-2.00;99.90
11152;DHT22;5630;49.342;10.802;2023-02-28T02:41:36;-2.00;99.90
11152;DHT22;5630;49.342;10.802;2023-02-28T02:46:41;-2.10;99.90
11152;DHT22;5630;49.342;10.802;2023-02-28T02:49:13;-2.10;99.90
11152;DHT22;5630;49.342;10.802;2023-02-28T02:51:40;-2.10;99.90
11152;DHT22;5630;49.342;10.802;2023-02-28T02:56:46;-2.10;99.90
11152;DHT22;5630;49.342;10.802;2023-02-28T02:59:15;-2.10;99.90
11152;DHT22;5630;49.342;10.802;2023-02-28T03:01:50;-2.00;99.90
11152;DHT22;5630;49.342;10.802;2023-02-28T03:04:19;-2.10;99.90
11152;DHT22;5630;49.342;10.802;2023-02-28T03:06:45;-2.10;99.90
11152;DHT22;5630;49.342;10.802;2023-02-28T03:09:11;-2.10;99.90
11152;DHT22;5630;49.342;10.802;2023-02-28T03:11:37;-2.10;99.90
11152;DHT22;5630;49.342;10.802;2023-02-28T03:14:22;-2.10;99.90
11152;DHT22;5630;49.342;10.802;2023-02-28T03:17:10;-2.20;99.90
11152;DHT22;5630;49.342;10.802;2023-02-28T03:19:54;-2.10;99.90
11152;DHT22;5630;49.342;10.802;2023-02-28T03:27:29;-2.20;99.90
11152;DHT22;5630;49.342;10.802;2023-02-28T03:30:09;-2.20;99.90
11152;DHT22;5630;49.342;10.802;2023-02-28T03:32:40;-2.20;99.90
11152;DHT22;5630;49.342;10.802;2023-02-28T03:35:12;-2.20;99.90
11152;DHT22;5630;49.342;10.802;2023-02-28T03:37:41;-2.20;99.90
11152;DHT22;5630;49.342;10.802;2023-02-28T03:40:11;-2.20;99.90
11152;DHT22;5630;49.342;10.802;2023-02-28T03:42:41;-2.20;99.90
11152;DHT22;5630;49.342;10.802;2023-02-28T03:45:16;-2.20;99.90
11152;DHT22;5630;49.342;10.802;2023-02-28T03:47:52;-2.20;99.90
11152;DHT22;5630;49.342;10.802;2023-02-28T03:50:37;-2.20;99.90
11152;DHT22;5630;49.342;10.802;2023-02-28T03:59:02;-2.30;99.90
11152;DHT22;5630;49.342;10.802;2023-02-28T04:01:47;-2.30;99.90
11152;DHT22;5630;49.342;10.802;2023-02-28T04:04:14;-2.30;99.90
11152;DHT22;5630;49.342;10.802;2023-02-28T04:06:41;-2.40;99.90
11152;DHT22;5630;49.342;10.802;2023-02-28T04:09:09;-2.30;99.90
11152;DHT22;5630;49.342;10.802;2023-02-28T04:11:51;-2.30;99.90
11152;DHT22;5630;49.342;10.802;2023-02-28T04:14:18;-2.30;99.90
11152;DHT22;5630;49.342;10.802;2023-02-28T04:16:44;-2.30;99.90
11152;DHT22;5630;49.342;10.802;2023-02-28T04:19:11;-2.30;99.90
11152;DHT22;5630;49.342;10.802;2023-02-28T04:21:45;-2.30;99.90
11152;DHT22;5630;49.342;10.802;2023-02-28T04:24:16;-2.30;99.90
11152;DHT22;5630;49.342;10.802;2023-02-28T04:26:47;-2.30;99.90
11152;DHT22;5630;49.342;10.802;2023-02-28T04:29:14;-2.30;99.90
11152;DHT22;5630;49.342;10.802;2023-02-28T04:31:44;-2.30;99.90
11152;DHT22;5630;49.342;10.802;2023-02-28T04:34:09;-2.30;99.90
11152;DHT22;5630;49.342;10.802;2023-02-28T04:36:35;-2.30;99.90
11152;DHT22;5630;49.342;10.802;2023-02-28T04:39:01;-2.30;99.90
11152;DHT22;5630;49.342;10.802;2023-02-28T04:41:26;-2.30;99.90
11152;DHT22;5630;49.342;10.802;2023-02-28T04:43:52;-2.30;99.90
11152;DHT22;5630;49.342;10.802;2023-02-28T04:46:18;-2.40;99.90
11152;DHT22;5630;49.342;10.802;2023-02-28T04:48:45;-2.30;99.90
11152;DHT22;5630;49.342;10.802;2023-02-28T04:51:13;-2.30;99.90
11152;DHT22;5630;49.342;10.802;2023-02-28T04:53:40;-2.30;99.90
11152;DHT22;5630;49.342;10.802;2023-02-28T04:56:08;-2.40;99.90
11152;DHT22;5630;49.342;10.802;2023-02-28T04:58:34;-2.30;99.90
11152;DHT22;5630;49.342;10.802;2023-02-28T05:01:04;-2.40;99.90
11152;DHT22;5630;49.342;10.802;2023-02-28T05:03:38;-2.30;99.90
11152;DHT22;5630;49.342;10.802;2023-02-28T05:06:06;-2.20;99.90
11152;DHT22;5630;49.342;10.802;2023-02-28T05:08:31;-2.30;99.90
11152;DHT22;5630;49.342;10.802;2023-02-28T05:10:57;-2.30;99.90
11152;DHT22;5630;49.342;10.802;2023-02-28T05:13:22;-2.40;99.90
11152;DHT22;5630;49.342;10.802;2023-02-28T05:15:48;-2.30;99.90
11152;DHT22;5630;49.342;10.802;2023-02-28T05:18:13;-2.30;99.90
11152;DHT22;5630;49.342;10.802;2023-02-28T05:20:39;-2.30;99.90
11152;DHT22;5630;49.342;10.802;2023-02-28T05:23:04;-2.30;99.90
11152;DHT22;5630;49.342;10.802;2023-02-28T05:25:30;-2.30;99.90
11152;DHT22;5630;49.342;10.802;2023-02-28T05:27:56;-2.30;99.90
11152;DHT22;5630;49.342;10.802;2023-02-28T05:30:21;-2.40;99.90
11152;DHT22;5630;49.342;10.802;2023-02-28T05:32:50;-2.30;99.90
11152;DHT22;5630;49.342;10.802;2023-02-28T05:35:16;-2.30;99.90
11152;DHT22;5630;49.342;10.802;2023-02-28T05:37:41;-2.30;99.90
11152;DHT22;5630;49.342;10.802;2023-02-28T05:40:08;-2.20;99.90
11152;DHT22;5630;49.342;10.802;2023-02-28T05:42:36;-2.20;99.90
11152;DHT22;5630;49.342;10.802;2023-02-28T05:45:03;-2.20;99.90
11152;DHT22;5630;49.342;10.802;2023-02-28T05:47:29;-2.20;99.90
11152;DHT22;5630;49.342;10.802;2023-02-28T05:49:54;-2.20;99.90
11152;DHT22;5630;49.342;10.802;2023-02-28T05:52:20;-2.30;99.90
11152;DHT22;5630;49.342;10.802;2023-02-28T05:54:46;-2.30;99.90
11152;DHT22;5630;49.342;10.802;2023-02-28T05:57:12;-2.30;99.90
11152;DHT22;5630;49.342;10.802;2023-02-28T05:59:37;-2.30;99.90
11152;DHT22;5630;49.342;10.802;2023-02-28T06:02:06;-2.20;99.90
11152;DHT22;5630;49.342;10.802;2023-02-28T06:04:31;-2.20;99.90
11152;DHT22;5630;49.342;10.802;2023-02-28T06:06:57;-2.20;99.90
11152;DHT22;5630;49.342;10.802;2023-02-28T06:09:23;-2.20;99.90
11152;DHT22;5630;49.342;10.802;2023-02-28T06:11:48;-2.10;99.90
11152;DHT22;5630;49.342;10.802;2023-02-28T06:14:16;-2.20;99.90
11152;DHT22;5630;49.342;10.802;2023-02-28T06:19:09;1.40;99.90
11152;DHT22;5630;49.342;10.802;2023-02-28T06:21:35;3.40;99.90
11152;DHT22;5630;49.342;10.802;2023-02-28T06:26:27;4.60;99.90
11152;DHT22;5630;49.342;10.802;2023-02-28T06:28:53;5.40;99.90
11152;DHT22;5630;49.342;10.802;2023-02-28T06:31:19;4.40;99.90
11152;DHT22;5630;49.342;10.802;2023-02-28T06:33:46;3.30;99.90
11152;DHT22;5630;49.342;10.802;2023-02-28T06:36:13;2.30;99.90
11152;DHT22;5630;49.342;10.802;2023-02-28T06:38:39;1.80;99.90
11152;DHT22;5630;49.342;10.802;2023-02-28T06:43:36;1.10;99.90
11152;DHT22;5630;49.342;10.802;2023-02-28T06:46:03;0.30;99.90
11152;DHT22;5630;49.342;10.802;2023-02-28T06:48:29;0.10;99.90
11152;DHT22;5630;49.342;10.802;2023-02-28T06:51:08;-0.10;99.90
11152;DHT22;5630;49.342;10.802;2023-02-28T06:53:34;-0.40;99.90
11152;DHT22;5630;49.342;10.802;2023-02-28T06:56:04;-0.60;99.90
11152;DHT22;5630;49.342;10.802;2023-02-28T06:58:30;-0.60;99.90
11152;DHT22;5630;49.342;10.802;2023-02-28T07:00:56;-0.70;99.90
11152;DHT22;5630;49.342;10.802;2023-02-28T07:03:21;-0.70;99.90
11152;DHT22;5630;49.342;10.802;2023-02-28T07:05:48;-0.80;99.90
11152;DHT22;5630;49.342;10.802;2023-02-28T07:08:14;-0.80;99.90
11152;DHT22;5630;49.342;10.802;2023-02-28T07:10:40;-0.80;99.90
11152;DHT22;5630;49.342;10.802;2023-02-28T07:13:07;-0.60;99.90
11152;DHT22;5630;49.342;10.802;2023-02-28T07:15:34;-0.20;99.90
11152;DHT22;5630;49.342;10.802;2023-02-28T07:17:59;-0.20;99.90
11152;DHT22;5630;49.342;10.802;2023-02-28T07:20:25;-0.30;99.90
11152;DHT22;5630;49.342;10.802;2023-02-28T07:22:51;-0.30;99.90
11152;DHT22;5630;49.342;10.802;2023-02-28T07:25:28;-0.40;99.90
11152;DHT22;5630;49.342;10.802;2023-02-28T07:27:55;-0.50;99.90
11152;DHT22;5630;49.342;10.802;2023-02-28T07:30:21;-0.50;99.90
11152;DHT22;5630;49.342;10.802;2023-02-28T07:32:47;-0.50;99.90
11152;DHT22;5630;49.342;10.802;2023-02-28T07:35:13;-0.40;99.90
11152;DHT22;5630;49.342;10.802;2023-02-28T07:37:41;-0.40;99.90
11152;DHT22;5630;49.342;10.802;2023-02-28T07:40:09;-0.40;99.90
11152;DHT22;5630;49.342;10.802;2023-02-28T07:42:37;-0.40;99.90
11152;DHT22;5630;49.342;10.802;2023-02-28T07:45:04;-0.30;99.90
11152;DHT22;5630;49.342;10.802;2023-02-28T07:47:30;-0.20;99.90
11152;DHT22;5630;49.342;10.802;2023-02-28T07:49:57;-0.30;99.90
11152;DHT22;5630;49.342;10.802;2023-02-28T07:52:23;-0.10;99.90
11152;DHT22;5630;49.342;10.802;2023-02-28T07:54:49;-0.10;99.90
11152;DHT22;5630;49.342;10.802;2023-02-28T07:57:15;0.00;99.90
11152;DHT22;5630;49.342;10.802;2023-02-28T07:59:41;0.10;99.90
11152;DHT22;5630;49.342;10.802;2023-02-28T08:02:09;0.20;99.90
11152;DHT22;5630;49.342;10.802;2023-02-28T08:04:36;0.30;99.90
11152;DHT22;5630;49.342;10.802;2023-02-28T08:07:01;0.40;99.90
11152;DHT22;5630;49.342;10.802;2023-02-28T08:09:27;0.40;99.90
11152;DHT22;5630;49.342;10.802;2023-02-28T08:11:52;0.40;99.90
11152;DHT22;5630;49.342;10.802;2023-02-28T08:14:18;0.50;99.90
11152;DHT22;5630;49.342;10.802;2023-02-28T08:16:43;0.70;99.90
11152;DHT22;5630;49.342;10.802;2023-02-28T08:19:09;0.70;99.90
11152;DHT22;5630;49.342;10.802;2023-02-28T08:21:34;0.70;99.90
11152;DHT22;5630;49.342;10.802;2023-02-28T08:24:00;0.70;99.90
11152;DHT22;5630;49.342;10.802;2023-02-28T08:26:26;0.90;99.90
11152;DHT22;5630;49.342;10.802;2023-02-28T08:28:51;1.10;99.90
11152;DHT22;5630;49.342;10.802;2023-02-28T08:31:17;1.10;99.90
11152;DHT22;5630;49.342;10.802;2023-02-28T08:33:44;1.20;99.90
11152;DHT22;5630;49.342;10.802;2023-02-28T08:36:10;1.30;99.90
11152;DHT22;5630;49.342;10.802;2023-02-28T08:38:36;1.40;99.90
11152;DHT22;5630;49.342;10.802;2023-02-28T08:41:07;1.50;99.90
11152;DHT22;5630;49.342;10.802;2023-02-28T08:43:34;1.60;99.90
11152;DHT22;5630;49.342;10.802;2023-02-28T08:46:00;1.90;99.90
11152;DHT22;5630;49.342;10.802;2023-02-28T08:48:27;2.20;99.90
11152;DHT22;5630;49.342;10.802;2023-02-28T08:51:05;3.30;99.90
11152;DHT22;5630;49.342;10.802;2023-02-28T08:53:31;3.50;99.90
11152;DHT22;5630;49.342;10.802;2023-02-28T08:56:03;3.40;99.90
11152;DHT22;5630;49.342;10.802;2023-02-28T08:58:29;3.50;99.90
11152;DHT22;5630;49.342;10.802;2023-02-28T09:00:55;3.30;99.90
11152;DHT22;5630;49.342;10.802;2023-02-28T09:03:22;3.20;99.90
11152;DHT22;5630;49.342;10.802;2023-02-28T09:05:56;3.30;99.90
11152;DHT22;5630;49.342;10.802;2023-02-28T09:08:23;3.40;99.90
11152;DHT22;5630;49.342;10.802;2023-02-28T09:10:48;3.40;99.90
11152;DHT22;5630;49.342;10.802;2023-02-28T09:13:14;3.40;99.90
11152;DHT22;5630;49.342;10.802;2023-02-28T09:15:40;3.40;99.90
11152;DHT22;5630;49.342;10.802;2023-02-28T09:18:05;3.20;99.90
11152;DHT22;5630;49.342;10.802;2023-02-28T09:20:31;3.10;99.90
11152;DHT22;5630;49.342;10.802;2023-02-28T09:22:56;3.30;99.90
11152;DHT22;5630;49.342;10.802;2023-02-28T09:25:22;3.20;99.90
11152;DHT22;5630;49.342;10.802;2023-02-28T09:27:47;3.00;99.90
11152;DHT22;5630;49.342;10.802;2023-02-28T09:30:13;3.00;99.90
11152;DHT22;5630;49.342;10.802;2023-02-28T09:32:39;2.90;99.90
11152;DHT22;5630;49.342;10.802;2023-02-28T09:35:05;2.90;99.90
11152;DHT22;5630;49.342;10.802;2023-02-28T09:37:31;2.90;99.90
11152;DHT22;5630;49.342;10.802;2023-02-28T09:39:57;3.00;99.90
11152;DHT22;5630;49.342;10.802;2023-02-28T09:42:31;3.30;99.90
11152;DHT22;5630;49.342;10.802;2023-02-28T09:44:58;3.50;99.90
11152;DHT22;5630;49.342;10.802;2023-02-28T09:47:37;3.60;99.90
11152;DHT22;5630;49.342;10.802;2023-02-28T09:53:33;4.30;99.90
11152;DHT22;5630;49.342;10.802;2023-02-28T09:56:08;4.80;99.90
11152;DHT22;5630;49.342;10.802;2023-02-28T09:58:50;5.70;99.90
11152;DHT22;5630;49.342;10.802;2023-02-28T10:01:27;5.70;99.90
11152;DHT22;5630;49.342;10.802;2023-02-28T10:04:50;6.00;99.90
11152;DHT22;5630;49.342;10.802;2023-02-28T10:06:51;6.10;99.90
11152;DHT22;5630;49.342;10.802;2023-02-28T10:09:30;5.80;99.90
11152;DHT22;5630;49.342;10.802;2023-02-28T10:12:02;5.80;99.90
11152;DHT22;5630;49.342;10.802;2023-02-28T10:14:29;5.80;99.90
11152;DHT22;5630;49.342;10.802;2023-02-28T10:17:15;5.80;99.90
11152;DHT22;5630;49.342;10.802;2023-02-28T10:20:02;5.80;99.90
11152;DHT22;5630;49.342;10.802;2023-02-28T10:22:44;5.80;99.90
11152;DHT22;5630;49.342;10.802;2023-02-28T10:25:21;6.00;99.90
11152;DHT22;5630;49.342;10.802;2023-02-28T10:27:48;6.20;99.90
11152;DHT22;5630;49.342;10.802;2023-02-28T10:30:14;6.30;99.90
11152;DHT22;5630;49.342;10.802;2023-02-28T10:35:24;6.50;99.90
11152;DHT22;5630;49.342;10.802;2023-02-28T10:37:55;6.70;99.90
11152;DHT22;5630;49.342;10.802;2023-02-28T10:43:00;6.90;99.90
11152;DHT22;5630;49.342;10.802;2023-02-28T10:45:33;6.80;99.90
11152;DHT22;5630;49.342;10.802;2023-02-28T10:48:05;6.90;99.90
11152;DHT22;5630;49.342;10.802;2023-02-28T10:51:06;7.00;99.90
11152;DHT22;5630;49.342;10.802;2023-02-28T10:56:22;7.30;99.90
11152;DHT22;5630;49.342;10.802;2023-02-28T11:03:59;6.50;99.90
11152;DHT22;5630;49.342;10.802;2023-02-28T11:06:29;6.60;99.90
11152;DHT22;5630;49.342;10.802;2023-02-28T11:08:56;6.60;99.90
11152;DHT22;5630;49.342;10.802;2023-02-28T11:11:25;6.40;99.90
11152;DHT22;5630;49.342;10.802;2023-02-28T11:13:54;6.60;99.90
11152;DHT22;5630;49.342;10.802;2023-02-28T11:16:20;6.70;99.90
11152;DHT22;5630;49.342;10.802;2023-02-28T11:18:54;6.70;99.90
11152;DHT22;5630;49.342;10.802;2023-02-28T11:21:32;6.80;99.90
11152;DHT22;5630;49.342;10.802;2023-02-28T11:24:23;7.00;99.90
11152;DHT22;5630;49.342;10.802;2023-02-28T11:26:50;7.00;99.90
11152;DHT22;5630;49.342;10.802;2023-02-28T11:29:28;7.20;99.90
11152;DHT22;5630;49.342;10.802;2023-02-28T11:32:18;7.40;99.90
11152;DHT22;5630;49.342;10.802;2023-02-28T11:34:46;7.60;99.90
11152;DHT22;5630;49.342;10.802;2023-02-28T11:37:18;7.80;99.90
11152;DHT22;5630;49.342;10.802;2023-02-28T11:39:45;7.70;99.90
11152;DHT22;5630;49.342;10.802;2023-02-28T11:44:48;7.90;99.90
11152;DHT22;5630;49.342;10.802;2023-02-28T11:47:24;8.10;99.90
11152;DHT22;5630;49.342;10.802;2023-02-28T11:53:10;8.40;99.90
11152;DHT22;5630;49.342;10.802;2023-02-28T11:55:39;8.20;99.90
11152;DHT22;5630;49.342;10.802;2023-02-28T12:01:32;7.90;99.90
11152;DHT22;5630;49.342;10.802;2023-02-28T12:07:14;8.00;99.90
11152;DHT22;5630;49.342;10.802;2023-02-28T12:20:49;8.40;99.90
11152;DHT22;5630;49.342;10.802;2023-02-28T12:23:48;8.50;99.90
11152;DHT22;5630;49.342;10.802;2023-02-28T12:29:19;8.00;99.90
11152;DHT22;5630;49.342;10.802;2023-02-28T12:32:00;8.20;99.90
11152;DHT22;5630;49.342;10.802;2023-02-28T12:34:47;8.30;99.90
11152;DHT22;5630;49.342;10.802;2023-02-28T12:37:29;8.20;99.90
11152;DHT22;5630;49.342;10.802;2023-02-28T12:40:02;7.90;99.90
11152;DHT22;5630;49.342;10.802;2023-02-28T12:42:39;7.90;99.90
11152;DHT22;5630;49.342;10.802;2023-02-28T12:45:13;8.00;99.90
11152;DHT22;5630;49.342;10.802;2023-02-28T12:47:42;8.00;99.90
11152;DHT22;5630;49.342;10.802;2023-02-28T12:50:11;8.10;99.90
11152;DHT22;5630;49.342;10.802;2023-02-28T12:53:06;7.90;99.90
11152;DHT22;5630;49.342;10.802;2023-02-28T12:55:55;7.80;99.90
11152;DHT22;5630;49.342;10.802;2023-02-28T12:58:56;7.90;99.90
11152;DHT22;5630;49.342;10.802;2023-02-28T13:01:52;7.90;99.90
11152;DHT22;5630;49.342;10.802;2023-02-28T13:07:29;7.90;99.90
11152;DHT22;5630;49.342;10.802;2023-02-28T13:09:58;7.90;99.90
11152;DHT22;5630;49.342;10.802;2023-02-28T13:12:24;7.70;99.90
11152;DHT22;5630;49.342;10.802;2023-02-28T13:15:23;7.70;99.70
11152;DHT22;5630;49.342;10.802;2023-02-28T13:17:51;7.80;99.80
11152;DHT22;5630;49.342;10.802;2023-02-28T13:20:20;7.40;99.90
11152;DHT22;5630;49.342;10.802;2023-02-28T13:22:49;7.20;99.90
11152;DHT22;5630;49.342;10.802;2023-02-28T13:27:49;7.20;99.90
11152;DHT22;5630;49.342;10.802;2023-02-28T13:33:31;8.40;99.90
11152;DHT22;5630;49.342;10.802;2023-02-28T13:41:41;8.90;99.90
11152;DHT22;5630;49.342;10.802;2023-02-28T13:57:04;8.00;99.90
11152;DHT22;5630;49.342;10.802;2023-02-28T14:00:06;7.90;99.90
11152;DHT22;5630;49.342;10.802;2023-02-28T14:05:14;7.90;99.90
11152;DHT22;5630;49.342;10.802;2023-02-28T14:07:52;7.90;99.90
11152;DHT22;5630;49.342;10.802;2023-02-28T14:13:36;7.90;99.90
11152;DHT22;5630;49.342;10.802;2023-02-28T14:15:59;7.80;99.90
11152;DHT22;5630;49.342;10.802;2023-02-28T14:18:33;7.70;99.90
11152;DHT22;5630;49.342;10.802;2023-02-28T14:33:22;8.20;99.90
11152;DHT22;5630;49.342;10.802;2023-02-28T14:36:03;8.10;99.90
11152;DHT22;5630;49.342;10.802;2023-02-28T14:38:37;7.90;99.90
11152;DHT22;5630;49.342;10.802;2023-02-28T14:41:14;7.60;99.90
11152;DHT22;5630;49.342;10.802;2023-02-28T14:43:57;7.20;99.90
11152;DHT22;5630;49.342;10.802;2023-02-28T14:46:27;7.10;99.90
11152;DHT22;5630;49.342;10.802;2023-02-28T14:48:54;6.80;99.90
11152;DHT22;5630;49.342;10.802;2023-02-28T14:51:23;6.60;99.90
11152;DHT22;5630;49.342;10.802;2023-02-28T14:53:52;6.40;99.90
11152;DHT22;5630;49.342;10.802;2023-02-28T14:56:27;6.30;99.90
11152;DHT22;5630;49.342;10.802;2023-02-28T14:58:56;6.30;99.90
11152;DHT22;5630;49.342;10.802;2023-02-28T15:01:23;6.20;99.90
11152;DHT22;5630;49.342;10.802;2023-02-28T15:03:58;6.00;99.90
11152;DHT22;5630;49.342;10.802;2023-02-28T15:06:24;5.90;99.90
11152;DHT22;5630;49.342;10.802;2023-02-28T15:09:08;5.80;99.90
11152;DHT22;5630;49.342;10.802;2023-02-28T15:11:35;5.80;99.90
11152;DHT22;5630;49.342;10.802;2023-02-28T15:14:01;5.70;99.90
11152;DHT22;5630;49.342;10.802;2023-02-28T15:16:37;5.70;99.90
11152;DHT22;5630;49.342;10.802;2023-02-28T15:19:05;5.60;99.90
11152;DHT22;5630;49.342;10.802;2023-02-28T15:21:38;5.60;99.90
11152;DHT22;5630;49.342;10.802;2023-02-28T15:24:05;5.70;99.90
11152;DHT22;5630;49.342;10.802;2023-02-28T15:26:37;5.50;99.90
11152;DHT22;5630;49.342;10.802;2023-02-28T15:29:06;5.50;99.90
11152;DHT22;5630;49.342;10.802;2023-02-28T15:31:35;5.50;99.90
11152;DHT22;5630;49.342;10.802;2023-02-28T15:34:06;5.50;99.90
11152;DHT22;5630;49.342;10.802;2023-02-28T15:36:33;5.30;99.90
11152;DHT22;5630;49.342;10.802;2023-02-28T15:39:03;5.20;99.90
11152;DHT22;5630;49.342;10.802;2023-02-28T15:41:43;5.20;99.90
11152;DHT22;5630;49.342;10.802;2023-02-28T15:46:53;5.10;99.90
11152;DHT22;5630;49.342;10.802;2023-02-28T15:49:21;5.00;99.90
11152;DHT22;5630;49.342;10.802;2023-02-28T15:51:49;4.90;99.90
11152;DHT22;5630;49.342;10.802;2023-02-28T15:54:23;4.80;99.90
11152;DHT22;5630;49.342;10.802;2023-02-28T15:56:53;4.70;99.90
11152;DHT22;5630;49.342;10.802;2023-02-28T15:59:29;4.70;99.90
11152;DHT22;5630;49.342;10.802;2023-02-28T16:04:35;4.60;99.90
11152;DHT22;5630;49.342;10.802;2023-02-28T16:07:03;4.60;99.90
11152;DHT22;5630;49.342;10.802;2023-02-28T16:09:29;4.40;99.90
11152;DHT22;5630;49.342;10.802;2023-02-28T16:11:59;4.50;99.90
11152;DHT22;5630;49.342;10.802;2023-02-28T16:14:28;4.30;99.90
11152;DHT22;5630;49.342;10.802;2023-02-28T16:16:57;4.30;99.90
11152;DHT22;5630;49.342;10.802;2023-02-28T16:19:27;4.30;99.90
11152;DHT22;5630;49.342;10.802;2023-02-28T16:21:53;4.20;99.90
11152;DHT22;5630;49.342;10.802;2023-02-28T16:24:18;4.10;99.90
11152;DHT22;5630;49.342;10.802;2023-02-28T16:26:47;4.10;99.90
11152;DHT22;5630;49.342;10.802;2023-02-28T16:29:23;4.00;99.90
11152;DHT22;5630;49.342;10.802;2023-02-28T16:31:50;4.00;99.90
11152;DHT22;5630;49.342;10.802;2023-02-28T16:34:16;4.00;99.90
11152;DHT22;5630;49.342;10.802;2023-02-28T16:36:41;3.80;99.90
11152;DHT22;5630;49.342;10.802;2023-02-28T16:39:07;3.80;99.90
11152;DHT22;5630;49.342;10.802;2023-02-28T16:41:34;3.80;99.90
11152;DHT22;5630;49.342;10.802;2023-02-28T16:44:00;3.80;99.90
11152;DHT22;5630;49.342;10.802;2023-02-28T16:46:32;3.70;99.90
11152;DHT22;5630;49.342;10.802;2023-02-28T16:48:58;3.60;99.90
11152;DHT22;5630;49.342;10.802;2023-02-28T16:51:24;4.40;99.90
11152;DHT22;5630;49.342;10.802;2023-02-28T16:53:49;4.20;99.90
11152;DHT22;5630;49.342;10.802;2023-02-28T16:56:21;4.10;99.90
11152;DHT22;5630;49.342;10.802;2023-02-28T16:58:48;3.80;99.90
11152;DHT22;5630;49.342;10.802;2023-02-28T17:01:14;3.70;99.90
11152;DHT22;5630;49.342;10.802;2023-02-28T17:03:41;3.60;99.90
11152;DHT22;5630;49.342;10.802;2023-02-28T17:06:23;3.50;99.90
11152;DHT22;5630;49.342;10.802;2023-02-28T17:08:50;3.40;99.90
11152;DHT22;5630;49.342;10.802;2023-02-28T17:11:16;3.40;99.90
11152;DHT22;5630;49.342;10.802;2023-02-28T17:13:42;3.30;99.90
11152;DHT22;5630;49.342;10.802;2023-02-28T17:16:34;3.20;99.90
11152;DHT22;5630;49.342;10.802;2023-02-28T17:19:04;3.20;99.90
11152;DHT22;5630;49.342;10.802;2023-02-28T17:21:30;3.10;99.90
11152;DHT22;5630;49.342;10.802;2023-02-28T17:23:56;3.00;99.90
11152;DHT22;5630;49.342;10.802;2023-02-28T17:26:22;3.00;99.90
11152;DHT22;5630;49.342;10.802;2023-02-28T17:28:52;2.90;99.90
11152;DHT22;5630;49.342;10.802;2023-02-28T17:31:19;2.90;99.90
11152;DHT22;5630;49.342;10.802;2023-02-28T17:33:44;2.80;99.90
11152;DHT22;5630;49.342;10.802;2023-02-28T17:36:14;2.70;99.90
11152;DHT22;5630;49.342;10.802;2023-02-28T17:38:40;2.70;99.90
11152;DHT22;5630;49.342;10.802;2023-02-28T17:41:06;2.50;99.90
11152;DHT22;5630;49.342;10.802;2023-02-28T17:43:32;2.50;99.90
11152;DHT22;5630;49.342;10.802;2023-02-28T17:45:58;2.50;99.90
11152;DHT22;5630;49.342;10.802;2023-02-28T17:48:24;2.40;99.90
11152;DHT22;5630;49.342;10.802;2023-02-28T17:50:50;2.40;99.90
11152;DHT22;5630;49.342;10.802;2023-02-28T17:53:16;2.30;99.90
11152;DHT22;5630;49.342;10.802;2023-02-28T17:55:42;2.30;99.90
11152;DHT22;5630;49.342;10.802;2023-02-28T17:58:09;2.30;99.90
11152;DHT22;5630;49.342;10.802;2023-02-28T18:00:35;2.30;99.90
11152;DHT22;5630;49.342;10.802;2023-02-28T18:03:01;2.20;99.90
11152;DHT22;5630;49.342;10.802;2023-02-28T18:05:26;2.20;99.90
11152;DHT22;5630;49.342;10.802;2023-02-28T18:07:52;2.10;99.90
11152;DHT22;5630;49.342;10.802;2023-02-28T18:10:19;2.10;99.90
11152;DHT22;5630;49.342;10.802;2023-02-28T18:12:50;2.10;99.90
11152;DHT22;5630;49.342;10.802;2023-02-28T18:15:18;2.00;99.90